createdAt,value
2023-05-15T00:01:36.181Z,11.32
2023-05-15T00:04:40.591Z,11.32
2023-05-15T00:07:43.678Z,11.27
2023-05-15T00:10:57.516Z,11.16
2023-05-15T00:14:03.642Z,11.15
2023-05-15T00:17:07.753Z,11.14
2023-05-15T00:20:13.241Z,11.08
2023-05-15T00:23:16.333Z,11.08
2023-05-15T00:26:19.426Z,11.06
2023-05-15T00:29:22.533Z,11.02
2023-05-15T00:32:25.638Z,10.96
2023-05-15T00:35:29.926Z,10.96
2023-05-15T00:38:34.330Z,10.89
2023-05-15T00:41:38.611Z,10.87
2023-05-15T00:44:45.121Z,10.83
2023-05-15T00:47:49.073Z,10.82
2023-05-15T00:50:54.610Z,10.77
2023-05-15T00:53:59.867Z,10.71
2023-05-15T00:57:06.789Z,10.67
2023-05-15T01:00:11.829Z,10.63
2023-05-15T01:03:15.012Z,10.61
2023-05-15T01:06:19.519Z,10.55
2023-05-15T01:09:25.677Z,10.52
2023-05-15T01:12:31.672Z,10.51
2023-05-15T01:15:35.251Z,10.47
2023-05-15T01:18:38.573Z,10.48
2023-05-15T01:22:34.350Z,10.43
2023-05-15T01:26:00.408Z,10.36
2023-05-15T01:29:10.460Z,10.30
2023-05-15T01:32:21.790Z,10.13
2023-05-15T01:35:32.149Z,10.09
2023-05-15T01:38:40.709Z,10.16
2023-05-15T01:41:52.173Z,10.24
2023-05-15T01:45:01.595Z,10.25
2023-05-15T01:48:09.199Z,10.31
2023-05-15T01:51:16.015Z,10.33
2023-05-15T01:54:23.726Z,10.29
2023-05-15T01:57:27.881Z,10.28
2023-05-15T02:00:34.315Z,10.24
2023-05-15T02:03:38.470Z,10.19
2023-05-15T02:06:42.450Z,10.18
2023-05-15T02:09:47.230Z,10.19
2023-05-15T02:12:51.185Z,10.21
2023-05-15T02:15:57.186Z,10.19
2023-05-15T02:19:02.663Z,10.15
2023-05-15T02:22:06.115Z,10.13
2023-05-15T02:25:10.563Z,10.13
2023-05-15T02:28:27.530Z,10.02
2023-05-15T02:31:39.374Z,9.97
2023-05-15T02:34:56.963Z,10.08
2023-05-15T02:38:04.108Z,10.02
2023-05-15T02:41:08.706Z,9.94
2023-05-15T02:44:13.260Z,9.91
2023-05-15T02:47:18.772Z,9.74
2023-05-15T02:50:22.292Z,9.88
2023-05-15T02:53:25.350Z,9.87
2023-05-15T02:56:28.416Z,9.82
2023-05-15T02:59:31.567Z,9.79
2023-05-15T03:02:36.161Z,9.74
2023-05-15T03:05:39.369Z,9.70
2023-05-15T03:08:42.998Z,9.72
2023-05-15T03:11:46.102Z,9.70
2023-05-15T03:14:49.376Z,9.66
2023-05-15T03:17:53.936Z,9.65
2023-05-15T03:20:57.110Z,9.61
2023-05-15T03:24:00.168Z,9.59
2023-05-15T03:27:03.286Z,9.60
2023-05-15T03:30:11.165Z,9.60
2023-05-15T03:33:15.522Z,9.59
2023-05-15T03:36:18.820Z,9.54
2023-05-15T03:39:21.858Z,9.55
2023-05-15T03:42:25.651Z,9.50
2023-05-15T03:45:28.966Z,9.52
2023-05-15T03:48:33.489Z,9.61
2023-05-15T03:51:36.909Z,9.66
2023-05-15T03:54:40.741Z,9.67
2023-05-15T03:57:43.811Z,9.70
2023-05-15T04:00:46.905Z,9.73
2023-05-15T04:03:51.173Z,9.77
2023-05-15T04:06:54.593Z,9.75
2023-05-15T04:10:01.333Z,9.83
2023-05-15T04:13:04.404Z,9.82
2023-05-15T04:16:08.354Z,9.91
2023-05-15T04:19:12.819Z,9.94
2023-05-15T04:22:15.842Z,9.94
2023-05-15T04:25:20.359Z,10.08
2023-05-15T04:28:25.717Z,10.24
2023-05-15T04:31:28.881Z,10.24
2023-05-15T04:34:33.740Z,10.34
2023-05-15T04:37:36.993Z,10.30
2023-05-15T04:40:40.499Z,10.30
2023-05-15T04:43:43.652Z,10.40
2023-05-15T04:46:46.795Z,10.44
2023-05-15T04:49:51.181Z,10.48
2023-05-15T04:52:54.251Z,10.58
2023-05-15T04:55:57.295Z,10.71
2023-05-15T04:59:05.861Z,10.84
2023-05-15T05:02:10.909Z,11.04
2023-05-15T05:05:15.569Z,11.28
2023-05-15T05:08:18.669Z,11.58
2023-05-15T05:11:22.345Z,11.89
2023-05-15T05:14:25.425Z,12.00
2023-05-15T05:17:28.538Z,12.20
2023-05-15T05:20:32.913Z,12.38
2023-05-15T05:23:36.090Z,12.55
2023-05-15T05:26:39.408Z,12.63
2023-05-15T05:29:42.406Z,12.73
2023-05-15T05:32:45.468Z,12.84
2023-05-15T05:35:49.856Z,12.97
2023-05-15T05:38:52.831Z,12.99
2023-05-15T05:41:55.858Z,13.05
2023-05-15T05:44:59.126Z,13.20
2023-05-15T05:48:02.283Z,13.32
2023-05-15T05:51:06.891Z,13.27
2023-05-15T05:54:09.868Z,13.36
2023-05-15T05:57:12.965Z,13.37
2023-05-15T06:00:17.166Z,13.39
2023-05-15T06:03:20.243Z,13.46
2023-05-15T06:06:24.828Z,13.55
2023-05-15T06:09:27.997Z,13.58
2023-05-15T06:12:31.282Z,13.72
2023-05-15T06:15:34.404Z,13.76
2023-05-15T06:18:37.661Z,13.92
2023-05-15T06:21:42.027Z,14.17
2023-05-15T06:24:45.034Z,14.24
2023-05-15T06:27:48.412Z,14.37
2023-05-15T06:30:51.478Z,14.60
2023-05-15T06:33:54.515Z,14.68
2023-05-15T06:36:58.860Z,14.83
2023-05-15T06:40:01.876Z,14.97
2023-05-15T06:43:05.041Z,15.05
2023-05-15T06:46:08.272Z,15.14
2023-05-15T06:49:11.268Z,15.19
2023-05-15T06:52:15.607Z,15.26
2023-05-15T06:55:19.240Z,15.44
2023-05-15T06:58:22.314Z,15.56
2023-05-15T07:01:25.496Z,15.64
2023-05-15T07:04:28.957Z,15.78
2023-05-15T07:07:33.340Z,15.90
2023-05-15T07:10:36.281Z,16.03
2023-05-15T07:13:39.291Z,16.18
2023-05-15T07:16:42.375Z,16.37
2023-05-15T07:19:45.511Z,16.43
2023-05-15T07:22:56.198Z,16.47
2023-05-15T07:26:00.139Z,16.45
2023-05-15T07:29:04.135Z,16.41
2023-05-15T07:32:08.418Z,16.22
2023-05-15T07:35:12.398Z,16.32
2023-05-15T07:38:16.878Z,16.37
2023-05-15T07:41:19.917Z,16.58
2023-05-15T07:44:23.042Z,16.45
2023-05-15T07:47:26.150Z,16.59
2023-05-15T07:50:29.126Z,16.58
2023-05-15T07:53:34.011Z,16.52
2023-05-15T07:56:37.753Z,16.64
2023-05-15T07:59:41.178Z,16.66
2023-05-15T08:02:46.401Z,16.80
2023-05-15T08:05:49.686Z,16.90
2023-05-15T08:08:54.065Z,16.95
2023-05-15T08:12:17.506Z,17.04
2023-05-15T08:15:21.050Z,17.13
2023-05-15T08:18:24.137Z,17.13
2023-05-15T08:21:27.450Z,17.00
2023-05-15T08:24:31.711Z,17.06
2023-05-15T08:27:34.649Z,17.19
2023-05-15T08:30:38.033Z,17.19
2023-05-15T08:33:41.209Z,17.15
2023-05-15T08:36:45.725Z,17.03
2023-05-15T08:39:50.347Z,17.19
2023-05-15T08:42:56.303Z,17.03
2023-05-15T08:46:00.690Z,17.08
2023-05-15T08:49:12.867Z,17.14
2023-05-15T08:52:19.198Z,17.15
2023-05-15T08:55:24.013Z,17.17
2023-05-15T08:58:28.729Z,17.02
2023-05-15T09:01:32.233Z,17.00
2023-05-15T09:04:35.280Z,17.12
2023-05-15T09:07:40.901Z,17.31
2023-05-15T09:10:45.607Z,17.44
2023-05-15T09:13:48.978Z,17.46
2023-05-15T09:16:53.440Z,17.30
2023-05-15T09:19:56.655Z,17.35
2023-05-15T09:23:04.173Z,17.44
2023-05-15T09:26:13.714Z,17.38
2023-05-15T09:29:19.151Z,17.30
2023-05-15T09:32:22.734Z,17.43
2023-05-15T09:35:34.053Z,17.39
2023-05-15T09:38:42.604Z,17.45
2023-05-15T09:41:47.134Z,17.38
2023-05-15T09:44:50.109Z,17.49
2023-05-15T09:47:53.581Z,17.41
2023-05-15T09:50:56.938Z,17.40
2023-05-15T10:00:08.247Z,17.43
2023-05-15T10:09:42.698Z,17.77
2023-05-15T10:28:00.344Z,17.71
2023-05-15T10:32:01.118Z,17.58
2023-05-15T10:35:14.048Z,17.54
2023-05-15T10:38:27.541Z,17.16
2023-05-15T10:41:31.876Z,17.21
2023-05-15T10:44:35.234Z,17.26
2023-05-15T10:47:40.952Z,17.20
2023-05-15T10:50:45.410Z,17.11
2023-05-15T10:53:48.551Z,17.16
2023-05-15T10:56:52.443Z,17.21
2023-05-15T10:59:55.735Z,17.38
2023-05-15T11:02:59.321Z,17.60
2023-05-15T11:06:11.535Z,17.75
2023-05-15T11:09:38.140Z,17.95
2023-05-15T11:12:57.739Z,18.06
2023-05-15T11:16:01.535Z,18.19
2023-05-15T11:19:04.645Z,18.34
2023-05-15T11:22:21.264Z,18.52
2023-05-15T11:25:31.631Z,18.69
2023-05-15T11:28:44.380Z,18.89
2023-05-15T11:31:47.584Z,19.10
2023-05-15T11:34:51.255Z,19.20
2023-05-15T11:37:57.856Z,20.06
2023-05-15T11:41:03.496Z,20.11
2023-05-15T11:44:06.617Z,20.23
2023-05-15T11:47:11.239Z,19.77
2023-05-15T11:50:14.350Z,20.17
2023-05-15T11:53:20.100Z,20.69
2023-05-15T11:56:26.519Z,21.48
2023-05-15T11:59:31.944Z,21.57
2023-05-15T12:02:39.601Z,21.72
2023-05-15T12:05:56.869Z,22.03
2023-05-15T12:09:07.745Z,22.30
2023-05-15T12:12:50.376Z,23.03
2023-05-15T12:15:56.110Z,23.14
2023-05-15T12:18:59.453Z,22.72
2023-05-15T12:22:06.393Z,22.89
2023-05-15T12:25:14.875Z,22.47
2023-05-15T12:28:18.629Z,22.25
2023-05-15T12:31:24.015Z,22.66
2023-05-15T12:34:27.411Z,22.71
2023-05-15T12:37:33.651Z,22.71
2023-05-15T12:40:38.344Z,23.19
2023-05-15T12:43:42.153Z,23.35
2023-05-15T12:46:45.397Z,24.39
2023-05-15T12:49:48.703Z,23.58
2023-05-15T12:52:53.439Z,24.01
2023-05-15T12:55:57.961Z,23.67
2023-05-15T12:59:03.929Z,23.46
2023-05-15T13:02:11.387Z,23.33
2023-05-15T13:06:05.085Z,23.68
2023-05-15T13:09:31.140Z,23.36
2023-05-15T13:12:49.010Z,23.13
2023-05-15T13:15:52.406Z,22.44
2023-05-15T13:23:19.538Z,23.93
2023-05-15T13:26:38.227Z,22.89
2023-05-15T13:29:46.589Z,22.73
2023-05-15T13:32:49.597Z,22.75
2023-05-15T13:36:00.456Z,21.54
2023-05-15T13:39:09.834Z,19.73
2023-05-15T13:42:17.384Z,19.03
2023-05-15T13:45:36.286Z,18.93
2023-05-15T13:48:42.411Z,18.24
2023-05-15T13:51:49.001Z,17.86
2023-05-15T13:54:52.598Z,17.65
2023-05-15T13:57:58.265Z,17.67
2023-05-15T14:01:17.466Z,17.54
2023-05-15T14:05:01.029Z,17.25
2023-05-15T14:08:12.322Z,17.16
2023-05-15T14:11:18.053Z,17.28
2023-05-15T14:14:24.290Z,17.02
2023-05-15T14:17:31.968Z,16.68
2023-05-15T14:20:35.235Z,16.53
2023-05-15T14:23:41.249Z,16.37
2023-05-15T14:26:45.294Z,16.46
2023-05-15T14:29:49.545Z,16.58
2023-05-15T14:32:54.100Z,16.74
2023-05-15T14:35:58.030Z,16.54
2023-05-15T14:39:01.014Z,16.44
2023-05-15T14:42:04.774Z,16.58
2023-05-15T14:45:09.032Z,16.91
2023-05-15T14:48:13.369Z,16.69
2023-05-15T14:51:18.414Z,16.63
2023-05-15T14:54:22.825Z,16.74
2023-05-15T14:57:36.741Z,16.98
2023-05-15T15:00:40.659Z,17.26
2023-05-15T15:03:53.866Z,17.36
2023-05-15T15:07:18.801Z,17.31
2023-05-15T15:10:28.368Z,17.42
2023-05-15T15:13:41.810Z,17.74
2023-05-15T15:16:46.464Z,17.41
2023-05-15T15:19:53.079Z,17.29
2023-05-15T15:22:56.827Z,17.23
2023-05-15T15:26:00.109Z,17.24
2023-05-15T15:29:04.160Z,17.23
2023-05-15T15:32:08.686Z,17.31
2023-05-15T15:35:13.465Z,17.80
2023-05-15T15:38:16.523Z,18.28
2023-05-15T15:41:21.547Z,17.93
2023-05-15T15:44:25.686Z,17.90
2023-05-15T15:47:53.367Z,17.97
2023-05-15T15:50:59.401Z,17.97
2023-05-15T15:54:02.571Z,17.72
2023-05-15T15:57:08.782Z,17.98
2023-05-15T16:00:13.340Z,17.85
2023-05-15T16:03:16.554Z,17.70
2023-05-15T16:06:21.318Z,17.77
2023-05-15T16:09:24.414Z,17.74
2023-05-15T16:12:27.940Z,17.44
2023-05-15T16:15:30.961Z,17.54
2023-05-15T16:18:34.908Z,17.83
2023-05-15T16:21:43.648Z,17.65
2023-05-15T16:25:25.127Z,17.55
2023-05-15T16:29:43.161Z,17.51
2023-05-15T16:37:06.069Z,17.27
2023-05-15T16:40:10.522Z,17.23
2023-05-15T16:43:14.618Z,17.43
2023-05-15T16:46:18.145Z,17.49
2023-05-15T16:49:21.173Z,17.61
2023-05-15T16:52:25.865Z,17.68
2023-05-15T16:55:31.281Z,17.78
2023-05-15T16:58:34.300Z,17.68
2023-05-15T17:01:40.325Z,17.68
2023-05-15T17:04:48.194Z,17.70
2023-05-15T17:07:53.015Z,17.67
2023-05-15T17:10:56.747Z,17.72
2023-05-15T17:14:00.096Z,17.84
2023-05-15T17:17:26.901Z,17.96
2023-05-15T17:20:32.874Z,17.87
2023-05-15T17:23:37.283Z,17.79
2023-05-15T17:26:40.265Z,17.72
2023-05-15T17:29:43.604Z,17.77
2023-05-15T17:32:49.509Z,17.62
2023-05-15T17:35:52.609Z,17.49
2023-05-15T17:38:56.899Z,17.56
2023-05-15T17:42:18.876Z,17.52
2023-05-15T17:45:36.201Z,17.38
2023-05-15T17:48:53.581Z,17.30
2023-05-15T17:52:07.022Z,17.34
2023-05-15T17:55:15.773Z,17.22
2023-05-15T17:58:18.854Z,17.28
2023-05-15T18:01:22.130Z,17.22
2023-05-15T18:04:25.336Z,17.14
2023-05-15T18:07:28.392Z,17.11
2023-05-15T18:10:33.246Z,17.07
2023-05-15T18:13:36.346Z,16.94
2023-05-15T18:16:45.310Z,16.96
2023-05-15T18:19:49.080Z,16.91
2023-05-15T18:22:55.599Z,16.89
2023-05-15T18:26:05.958Z,16.78
2023-05-15T18:29:09.444Z,16.79
2023-05-15T18:32:12.620Z,16.74
2023-05-15T18:35:15.717Z,16.71
2023-05-15T18:38:18.868Z,16.71
2023-05-15T18:41:23.158Z,16.67
2023-05-15T18:44:26.275Z,16.68
2023-05-15T18:47:29.349Z,16.66
2023-05-15T18:50:34.198Z,16.66
2023-05-15T18:53:37.599Z,16.55
2023-05-15T18:56:50.301Z,16.55
2023-05-15T18:59:54.569Z,16.62
2023-05-15T19:02:57.624Z,16.65
2023-05-15T19:06:00.850Z,16.67
2023-05-15T19:09:06.292Z,16.61
2023-05-15T19:12:10.787Z,16.64
2023-05-15T19:15:15.830Z,16.69
2023-05-15T19:18:19.053Z,16.64
2023-05-15T19:21:22.201Z,16.64
2023-05-15T19:24:25.910Z,16.70
2023-05-15T19:27:30.602Z,16.59
2023-05-15T19:30:33.580Z,16.65
2023-05-15T19:33:36.786Z,16.54
2023-05-15T19:36:42.718Z,16.49
2023-05-15T19:39:45.928Z,16.42
2023-05-15T19:42:50.167Z,16.24
2023-05-15T19:45:53.729Z,16.20
2023-05-15T19:48:56.756Z,16.15
2023-05-15T19:51:59.861Z,16.12
2023-05-15T19:55:02.914Z,16.05
2023-05-15T19:58:07.347Z,15.95
2023-05-15T20:01:10.564Z,15.79
2023-05-15T20:04:14.172Z,15.66
2023-05-15T20:07:17.197Z,15.56
2023-05-15T20:10:20.593Z,15.50
2023-05-15T20:13:25.227Z,15.46
2023-05-15T20:16:28.327Z,15.50
2023-05-15T20:19:31.914Z,15.46
2023-05-15T20:22:36.740Z,15.44
2023-05-15T20:25:40.092Z,15.40
2023-05-15T20:28:45.304Z,15.41
2023-05-15T20:31:48.571Z,15.26
2023-05-15T20:34:52.064Z,15.27
2023-05-15T20:37:56.400Z,15.27
2023-05-15T20:40:59.879Z,15.25
2023-05-15T20:44:04.685Z,15.28
2023-05-15T20:47:08.169Z,15.26
2023-05-15T20:50:12.242Z,15.26
2023-05-15T20:53:15.226Z,15.25
2023-05-15T20:56:18.304Z,15.31
2023-05-15T20:59:23.068Z,15.31
2023-05-15T21:02:26.367Z,15.33
2023-05-15T21:05:31.690Z,15.35
2023-05-15T21:08:34.783Z,15.28
2023-05-15T21:11:37.792Z,15.29
2023-05-15T21:14:42.107Z,15.28
2023-05-15T21:17:45.151Z,15.34
2023-05-15T21:20:48.277Z,15.31
2023-05-15T21:23:51.406Z,15.22
2023-05-15T21:26:54.521Z,15.28
2023-05-15T21:29:59.540Z,15.29
2023-05-15T21:33:03.041Z,15.22
2023-05-15T21:36:07.105Z,15.23
2023-05-15T21:39:10.655Z,15.26
2023-05-15T21:42:13.665Z,15.22
2023-05-15T21:45:18.090Z,15.23
2023-05-15T21:48:21.075Z,15.23
2023-05-15T21:51:24.063Z,15.25
2023-05-15T21:54:27.096Z,15.19
2023-05-15T21:57:31.187Z,15.18
2023-05-15T22:00:35.558Z,15.20
2023-05-15T22:03:38.684Z,15.18
2023-05-15T22:06:41.827Z,15.17
2023-05-15T22:09:45.055Z,15.14
2023-05-15T22:12:48.704Z,15.10
2023-05-15T22:15:54.456Z,15.05
2023-05-15T22:18:57.585Z,15.03
2023-05-15T22:22:01.116Z,14.97
2023-05-15T22:25:04.540Z,14.99
2023-05-15T22:28:08.204Z,14.99
2023-05-15T22:31:12.719Z,14.90
2023-05-15T22:34:15.721Z,14.94
2023-05-15T22:37:19.129Z,14.90
2023-05-15T22:40:22.151Z,14.99
2023-05-15T22:43:25.371Z,14.99
2023-05-15T22:46:30.104Z,14.98
2023-05-15T22:49:33.677Z,14.93
2023-05-15T22:52:38.068Z,14.94
2023-05-15T22:55:41.074Z,14.97
2023-05-15T22:58:44.136Z,14.87
2023-05-15T23:01:50.275Z,14.91
2023-05-15T23:04:53.542Z,14.89
2023-05-15T23:07:56.711Z,14.85
2023-05-15T23:10:59.681Z,14.76
2023-05-15T23:14:03.635Z,14.75
2023-05-15T23:17:08.143Z,14.73
2023-05-15T23:20:13.001Z,14.70
2023-05-15T23:23:16.070Z,14.72
2023-05-15T23:26:19.145Z,14.65
2023-05-15T23:29:22.198Z,14.65
2023-05-15T23:32:28.092Z,14.60
2023-05-15T23:35:31.413Z,14.55
2023-05-15T23:38:34.589Z,14.50
2023-05-15T23:41:37.561Z,14.43
2023-05-15T23:44:40.686Z,14.39
2023-05-15T23:47:46.482Z,14.33
2023-05-15T23:50:49.538Z,14.31
2023-05-15T23:53:52.740Z,14.28
2023-05-15T23:56:55.946Z,14.25
2023-05-15T23:59:59.579Z,14.23
